Goose Lake, Indiana
Current Conditions -  °F | °C
As of 1:54 AM on Friday 19 Dec 2014 (Local Time) from KFWA Reporting Station
Overcast Overcast  
Wind Chill: 18°   Ceiling: 3000
Heat Index: 27°   Visibility: 7mi
Dew Point: 22°   Wind: 9mph
Humidity: 81%   Direction: 270°W
Pressure: 30.23"   Gusts: NA
Location:  41.1479°N, 85.4772°W
Report Text: KFWA 190654Z 27008KT 7SM OVC030 M03/M06 A3023 RMK AO2 SLP247 T10281056
Loading
Personal Weather Stations






























Interactive Weather Map New forecast layout! Learn more

10-Day Weather Forecast

Advertisements
Track Severe Weather on mobile